Time;durP1;ratioP1;P1;durP2;ratioP2;P2;SDS_P1;SDS_P2;PMS_P1;PMS_P2;Temp;Humidity;BMP_temperature;BMP_pressure;BME280_temperature;BME280_humidity;BME280_pressure;Samples;Min_cycle;Max_cycle;Signal;HPM_P1;HPM_P2
2022/03/06 00:01:09;;;;;;;47.88;25.38;;;;;;;1.56;73.51;102215.22;6279843;22;20008;-59
2022/03/06 00:03:34;;;;;;;47.22;23.77;;;;;;;1.52;74.33;102215.94;6279639;22;20061;-58
2022/03/06 00:05:59;;;;;;;46.90;23.80;;;;;;;1.51;74.10;102215.84;6279830;22;20035;-59
2022/03/06 00:08:24;;;;;;;49.15;24.35;;;;;;;1.46;74.21;102215.66;6279732;22;20062;-59
2022/03/06 00:10:50;;;;;;;47.40;24.60;;;;;;;1.50;75.07;102225.28;6279875;22;20008;-58
2022/03/06 00:13:15;;;;;;;46.20;24.05;;;;;;;1.47;75.05;102216.53;6280404;22;20011;-59
2022/03/06 00:15:41;;;;;;;49.88;24.92;;;;;;;1.50;75.12;102214.09;6279624;22;19999;-58
2022/03/06 00:18:07;;;;;;;47.47;24.17;;;;;;;1.44;75.55;102222.44;6279285;22;20023;-58
2022/03/06 00:20:32;;;;;;;47.70;23.80;;;;;;;1.39;75.57;102219.63;6279952;22;20018;-58
2022/03/06 00:22:57;;;;;;;47.80;24.20;;;;;;;1.32;75.57;102221.88;6252910;22;20008;-58
2022/03/06 00:25:23;;;;;;;48.08;24.27;;;;;;;1.35;75.47;102225.47;6280261;22;20008;-58
2022/03/06 00:27:49;;;;;;;49.97;24.55;;;;;;;1.32;75.95;102227.03;6279526;22;20007;-60
2022/03/06 00:30:14;;;;;;;48.63;24.08;;;;;;;1.26;75.68;102219.88;6252934;22;20068;-58
2022/03/06 00:32:40;;;;;;;50.05;25.13;;;;;;;1.25;74.79;102227.53;6279483;22;20082;-59
2022/03/06 00:35:07;;;;;;;48.88;24.42;;;;;;;1.18;75.62;102225.50;6279519;22;20007;-58
2022/03/06 00:37:32;;;;;;;46.45;25.02;;;;;;;1.14;75.73;102231.31;6279854;22;20054;-58
2022/03/06 00:39:57;;;;;;;45.22;23.52;;;;;;;1.15;76.31;102233.09;6279479;22;20003;-58
2022/03/06 00:42:22;;;;;;;47.10;24.13;;;;;;;1.13;76.11;102238.19;6279393;22;20448;-58
2022/03/06 00:44:48;;;;;;;48.22;24.10;;;;;;;1.18;76.35;102240.97;6279486;22;20075;-59
2022/03/06 00:47:13;;;;;;;48.00;24.33;;;;;;;1.14;75.61;102244.22;6279450;22;20012;-59
2022/03/06 00:49:38;;;;;;;46.08;23.58;;;;;;;1.15;76.19;102253.72;6280316;22;20051;-59
2022/03/06 00:52:03;;;;;;;48.95;23.48;;;;;;;1.12;75.82;102256.16;6253326;22;20050;-59
2022/03/06 00:54:29;;;;;;;48.85;23.90;;;;;;;1.01;76.28;102246.22;6278923;22;20345;-58
2022/03/06 00:56:54;;;;;;;47.80;24.48;;;;;;;0.99;75.63;102260.72;6279218;22;20007;-58
2022/03/06 00:59:19;;;;;;;47.40;24.98;;;;;;;0.99;76.52;102249.53;6279329;22;20004;-59
2022/03/06 01:01:45;;;;;;;47.17;24.25;;;;;;;1.03;76.17;102262.66;6279403;22;20007;-58
2022/03/06 01:04:10;;;;;;;48.83;23.45;;;;;;;0.98;75.91;102258.97;6279121;22;20035;-58
2022/03/06 01:06:36;;;;;;;47.38;23.73;;;;;;;0.96;76.79;102259.69;6279165;22;20039;-58
2022/03/06 01:09:03;;;;;;;48.10;23.33;;;;;;;0.94;75.88;102262.19;6279031;22;20008;-59
2022/03/06 01:11:28;;;;;;;45.60;24.05;;;;;;;0.91;76.08;102262.03;6279309;22;20086;-58
2022/03/06 01:13:54;;;;;;;48.10;23.33;;;;;;;0.86;75.36;102257.50;6279211;22;20411;-58
2022/03/06 01:16:19;;;;;;;47.33;23.85;;;;;;;0.89;76.39;102268.81;6279096;22;20004;-59
2022/03/06 01:18:44;;;;;;;46.78;23.42;;;;;;;0.93;75.18;102260.41;6279029;22;20018;-59
2022/03/06 01:21:09;;;;;;;47.60;23.63;;;;;;;0.88;75.48;102267.03;6279753;22;20003;-59
2022/03/06 01:23:35;;;;;;;47.30;23.65;;;;;;;0.82;75.55;102266.75;6279201;22;20027;-58
2022/03/06 01:26:01;;;;;;;45.22;23.15;;;;;;;0.84;75.64;102270.31;6279358;22;20007;-58
2022/03/06 01:28:26;;;;;;;46.72;22.73;;;;;;;0.72;75.44;102258.50;6278864;22;20015;-59
2022/03/06 01:30:52;;;;;;;45.03;22.60;;;;;;;0.72;76.26;102269.69;6278954;22;20003;-59
2022/03/06 01:33:17;;;;;;;45.92;23.27;;;;;;;0.69;76.67;102270.41;6278823;22;20089;-58
2022/03/06 01:35:42;;;;;;;48.20;23.75;;;;;;;0.65;76.84;102273.66;6279021;22;20006;-58
2022/03/06 01:38:07;;;;;;;44.88;22.92;;;;;;;0.60;77.58;102277.69;6279269;22;20428;-58
2022/03/06 01:40:33;;;;;;;50.50;24.65;;;;;;;0.57;76.99;102274.06;6278955;22;20015;-58
2022/03/06 01:42:58;;;;;;;48.90;24.17;;;;;;;0.54;76.60;102290.25;6278813;22;20297;-58
2022/03/06 01:45:24;;;;;;;46.70;24.13;;;;;;;0.54;77.76;102285.09;6278987;22;20000;-58
2022/03/06 01:47:52;;;;;;;50.30;24.02;;;;;;;0.53;78.06;102282.44;6278771;22;20054;-58
2022/03/06 01:50:24;;;;;;;46.47;23.58;;;;;;;0.53;77.33;102285.03;6278837;22;20008;-59
2022/03/06 01:52:52;;;;;;;46.70;23.75;;;;;;;0.49;77.42;102280.53;6279193;22;20011;-58
2022/03/06 01:55:19;;;;;;;48.17;24.23;;;;;;;0.46;77.57;102283.84;6278534;22;20000;-59
2022/03/06 01:57:46;;;;;;;47.67;23.52;;;;;;;0.41;78.16;102287.88;6278710;22;20015;-59
2022/03/06 02:00:19;;;;;;;46.92;23.45;;;;;;;0.25;78.59;102265.63;6278776;22;20018;-59
2022/03/06 02:02:44;;;;;;;48.03;23.60;;;;;;;0.37;78.48;102283.38;6278715;22;20305;-59
2022/03/06 02:05:10;;;;;;;47.28;22.65;;;;;;;0.33;77.98;102281.47;6278712;22;20023;-59
2022/03/06 02:07:36;;;;;;;46.35;23.38;;;;;;;0.29;78.15;102282.09;6278937;22;20277;-58
2022/03/06 02:10:04;;;;;;;47.92;23.75;;;;;;;0.26;78.98;102290.56;6278694;22;20008;-59
2022/03/06 02:12:30;;;;;;;46.25;23.33;;;;;;;0.28;79.00;102288.94;6278430;22;20408;-58
2022/03/06 02:14:58;;;;;;;47.47;22.55;;;;;;;0.21;78.91;102281.69;6278481;22;20030;-60
2022/03/06 02:17:25;;;;;;;46.38;23.38;;;;;;;0.17;79.69;102282.38;6278764;22;20008;-58
2022/03/06 02:20:02;;;;;;;44.30;22.70;;;;;;;0.21;79.40;102279.13;6278970;22;20015;-58
2022/03/06 02:22:29;;;;;;;49.10;23.05;;;;;;;0.17;78.70;102284.94;6278791;22;20012;-58
2022/03/06 02:24:56;;;;;;;47.63;24.45;;;;;;;0.15;79.66;102289.13;6278490;22;20042;-59
2022/03/06 02:27:21;;;;;;;50.13;22.48;;;;;;;0.12;78.92;102288.97;6278507;22;20030;-58
2022/03/06 02:29:47;;;;;;;45.15;23.58;;;;;;;0.07;79.16;102285.25;6278584;22;20078;-58
2022/03/06 02:32:16;;;;;;;47.00;22.70;;;;;;;0.04;79.10;102289.34;6278518;22;20008;-58
2022/03/06 02:34:43;;;;;;;44.72;23.90;;;;;;;0.02;79.01;102304.72;6279253;22;20077;-59
2022/03/06 02:37:12;;;;;;;45.92;22.92;;;;;;;0.03;79.07;102310.75;6278329;22;20007;-58
2022/03/06 02:39:37;;;;;;;46.63;23.38;;;;;;;0.01;79.33;102295.22;6278620;22;20035;-59
2022/03/06 02:42:04;;;;;;;43.45;22.30;;;;;;;-0.01;79.31;102302.00;6278079;22;20416;-59
2022/03/06 02:44:29;;;;;;;45.25;22.05;;;;;;;-0.04;79.86;102292.44;6278641;22;20076;-59
2022/03/06 02:46:55;;;;;;;45.95;23.23;;;;;;;-0.08;80.16;102312.75;6278397;22;20011;-58
2022/03/06 02:49:21;;;;;;;50.25;22.75;;;;;;;-0.15;79.97;102306.41;6278409;22;20004;-58
2022/03/06 02:51:47;;;;;;;43.80;23.08;;;;;;;-0.15;80.39;102308.06;6278278;22;20007;-59
2022/03/06 02:54:14;;;;;;;52.25;24.27;;;;;;;-0.23;80.00;102306.81;6278243;22;20353;-58
2022/03/06 02:56:40;;;;;;;43.28;22.38;;;;;;;-0.23;80.26;102304.22;6278180;22;20004;-58
2022/03/06 02:59:07;;;;;;;43.40;22.45;;;;;;;-0.28;80.67;102314.25;6278401;22;20019;-59
2022/03/06 03:01:38;;;;;;;49.75;22.45;;;;;;;-0.31;80.64;102311.53;6278744;22;20035;-58
2022/03/06 03:04:04;;;;;;;43.47;21.07;;;;;;;-0.33;80.96;102310.56;6278338;22;20004;-58
2022/03/06 03:06:30;;;;;;;43.60;22.33;;;;;;;-0.25;80.66;102308.41;6278262;22;20003;-58
2022/03/06 03:08:55;;;;;;;43.35;21.65;;;;;;;-0.27;81.26;102304.88;6278260;22;20393;-59
2022/03/06 03:11:21;;;;;;;40.85;21.75;;;;;;;-0.29;81.05;102309.03;6278110;22;20003;-58
2022/03/06 03:13:46;;;;;;;42.88;21.25;;;;;;;-0.36;81.10;102307.84;6278402;22;20008;-59
2022/03/06 03:16:11;;;;;;;44.05;21.45;;;;;;;-0.33;81.59;102310.56;6278317;22;20007;-58
2022/03/06 03:18:37;;;;;;;50.00;22.17;;;;;;;-0.33;81.19;102319.94;6277746;22;20444;-59
2022/03/06 03:21:02;;;;;;;43.03;22.00;;;;;;;-0.47;81.85;102293.50;6278229;22;20004;-58
2022/03/06 03:23:28;;;;;;;42.55;21.65;;;;;;;-0.39;81.92;102318.84;6277794;22;20003;-59
2022/03/06 03:25:53;;;;;;;41.17;20.50;;;;;;;-0.38;81.64;102314.59;6278441;22;20034;-59
2022/03/06 03:28:19;;;;;;;43.28;21.90;;;;;;;-0.38;81.65;102312.91;6278855;22;20079;-59
2022/03/06 03:30:44;;;;;;;42.90;21.67;;;;;;;-0.39;81.60;102308.56;6278383;22;20007;-59
2022/03/06 03:33:09;;;;;;;43.20;20.38;;;;;;;-0.38;81.47;102319.72;6279400;22;20053;-58
2022/03/06 03:35:35;;;;;;;41.35;21.42;;;;;;;-0.46;82.11;102308.13;6280003;22;20000;-59
2022/03/06 03:38:00;;;;;;;41.03;21.02;;;;;;;-0.48;82.51;102315.75;6280098;22;20393;-58
2022/03/06 03:40:25;;;;;;;47.67;22.23;;;;;;;-0.47;82.28;102314.94;6280013;22;20266;-59
2022/03/06 03:42:50;;;;;;;45.95;21.60;;;;;;;-0.49;82.35;102321.69;6279893;22;20004;-59
2022/03/06 03:45:16;;;;;;;41.33;20.95;;;;;;;-0.53;82.39;102312.06;6279616;22;20008;-58
2022/03/06 03:47:41;;;;;;;43.58;21.42;;;;;;;-0.51;82.83;102309.53;6280206;22;20007;-59
2022/03/06 03:50:07;;;;;;;46.05;21.80;;;;;;;-0.57;83.01;102315.25;6280095;22;20293;-58
2022/03/06 03:52:32;;;;;;;44.33;21.67;;;;;;;-0.57;83.04;102312.69;6279451;22;20004;-59
2022/03/06 03:54:58;;;;;;;42.97;20.25;;;;;;;-0.64;83.05;102312.25;6279727;22;20003;-59
2022/03/06 03:57:26;;;;;;;42.55;21.95;;;;;;;-0.65;83.11;102315.63;6252718;22;20431;-58
2022/03/06 03:59:52;;;;;;;43.30;21.20;;;;;;;-0.70;83.55;102323.09;6280034;22;20038;-58
2022/03/06 04:02:17;;;;;;;41.42;20.55;;;;;;;-0.72;83.72;102328.16;6279843;22;20038;-58
2022/03/06 04:04:42;;;;;;;44.90;22.05;;;;;;;-0.74;84.07;102321.16;6280229;22;20035;-59
2022/03/06 04:07:08;;;;;;;42.67;21.70;;;;;;;-0.78;84.21;102320.09;6279562;22;20010;-58
2022/03/06 04:09:33;;;;;;;42.72;21.42;;;;;;;-0.83;83.77;102324.06;6280256;22;20054;-59
2022/03/06 04:11:58;;;;;;;44.97;21.80;;;;;;;-0.82;83.89;102323.28;6279570;22;20019;-58
2022/03/06 04:14:24;;;;;;;42.92;21.95;;;;;;;-0.87;84.47;102328.97;6280058;22;20012;-59
2022/03/06 04:16:49;;;;;;;43.88;20.52;;;;;;;-0.87;84.37;102332.44;6279621;22;20010;-58
2022/03/06 04:19:14;;;;;;;46.10;22.45;;;;;;;-0.86;84.31;102341.00;6280092;22;20043;-58
2022/03/06 04:21:40;;;;;;;45.05;20.92;;;;;;;-0.95;84.56;102335.34;6279272;22;20004;-58
2022/03/06 04:24:05;;;;;;;41.65;21.17;;;;;;;-0.98;84.87;102346.34;6279563;22;20011;-57
2022/03/06 04:26:31;;;;;;;42.38;21.60;;;;;;;-1.01;84.89;102352.97;6279105;22;20058;-59
2022/03/06 04:28:56;;;;;;;43.20;21.05;;;;;;;-1.01;84.87;102348.72;6274741;22;20018;-57
2022/03/06 04:31:21;;;;;;;42.92;21.58;;;;;;;-1.06;85.28;102358.75;6279522;22;20003;-59
2022/03/06 04:33:46;;;;;;;44.92;22.13;;;;;;;-1.09;85.24;102352.56;6279677;22;20014;-58
2022/03/06 04:36:12;;;;;;;48.65;22.70;;;;;;;-1.08;85.75;102351.75;6279520;22;20008;-57
2022/03/06 04:38:39;;;;;;;43.05;21.85;;;;;;;-1.07;85.25;102367.25;6279292;22;20008;-58
2022/03/06 04:41:04;;;;;;;43.72;22.13;;;;;;;-1.11;85.64;102364.41;6279327;22;20363;-58
2022/03/06 04:43:30;;;;;;;43.20;20.60;;;;;;;-1.15;85.48;102358.22;6279329;22;20038;-58
2022/03/06 04:45:55;;;;;;;40.85;21.17;;;;;;;-1.08;85.24;102362.03;6279225;22;20003;-58
2022/03/06 04:48:20;;;;;;;44.65;21.80;;;;;;;-1.13;85.58;102363.44;6279655;22;20015;-58
2022/03/06 04:50:46;;;;;;;43.92;22.25;;;;;;;-1.14;85.33;102362.56;6279363;22;20129;-58
2022/03/06 04:53:11;;;;;;;44.75;22.45;;;;;;;-1.14;85.84;102374.50;6279012;22;20040;-58
2022/03/06 04:55:36;;;;;;;41.28;21.70;;;;;;;-1.19;85.58;102374.22;6278947;22;20004;-59
2022/03/06 04:58:02;;;;;;;42.42;21.90;;;;;;;-1.16;85.73;102373.53;6279278;22;20004;-58
2022/03/06 05:00:27;;;;;;;41.50;20.92;;;;;;;-1.19;85.62;102381.03;6278945;22;20458;-57
2022/03/06 05:02:52;;;;;;;45.53;23.15;;;;;;;-1.14;85.72;102392.47;6279635;22;20008;-58
2022/03/06 05:05:18;;;;;;;39.08;21.35;;;;;;;-1.18;85.67;102395.66;6279279;22;20042;-59
2022/03/06 05:07:43;;;;;;;41.60;21.20;;;;;;;-1.25;85.86;102390.97;6279120;22;20022;-59
2022/03/06 05:10:12;;;;;;;40.00;21.35;;;;;;;-1.24;85.96;102393.66;6278793;22;20053;-58
2022/03/06 05:12:40;;;;;;;43.63;21.83;;;;;;;-1.24;86.25;102396.22;6279508;22;20003;-58
2022/03/06 05:15:07;;;;;;;39.88;22.08;;;;;;;-1.22;85.94;102393.72;6279396;22;20008;-58
2022/03/06 05:17:32;;;;;;;39.03;21.00;;;;;;;-1.25;85.70;102404.72;6278766;22;20003;-58
2022/03/06 05:19:57;;;;;;;44.58;21.75;;;;;;;-1.29;85.91;102401.84;6279111;22;20087;-58
2022/03/06 05:22:23;;;;;;;44.95;22.52;;;;;;;-1.30;86.19;102405.22;6279178;22;20007;-58
2022/03/06 05:24:48;;;;;;;38.22;20.52;;;;;;;-1.28;86.53;102401.94;6278971;22;20309;-58
2022/03/06 05:27:13;;;;;;;41.28;21.27;;;;;;;-1.35;86.53;102401.47;6278969;22;20094;-59
2022/03/06 05:29:38;;;;;;;43.35;20.20;;;;;;;-1.27;85.70;102402.84;6279245;22;20003;-58
2022/03/06 05:32:04;;;;;;;39.58;21.70;;;;;;;-1.34;86.32;102410.97;6279566;22;20353;-57
2022/03/06 05:34:29;;;;;;;44.20;22.60;;;;;;;-1.35;86.20;102412.63;6278940;22;20015;-58
2022/03/06 05:36:55;;;;;;;40.15;21.45;;;;;;;-1.36;86.49;102408.28;6279279;22;20035;-58
2022/03/06 05:39:20;;;;;;;41.80;21.92;;;;;;;-1.38;86.42;102416.69;6278724;22;20004;-58
2022/03/06 05:41:46;;;;;;;41.20;21.17;;;;;;;-1.43;86.71;102416.44;6279057;22;20029;-59
2022/03/06 05:44:11;;;;;;;40.67;21.67;;;;;;;-1.43;86.56;102421.59;6279164;22;20011;-58
2022/03/06 05:46:36;;;;;;;39.90;21.10;;;;;;;-1.46;86.75;102421.38;6279283;22;20309;-58
2022/03/06 05:49:01;;;;;;;38.97;20.63;;;;;;;-1.53;87.15;102426.94;6278867;22;20000;-58
2022/03/06 05:51:27;;;;;;;36.30;20.20;;;;;;;-1.50;87.13;102432.25;6279059;22;20302;-59
2022/03/06 05:53:52;;;;;;;39.20;20.35;;;;;;;-1.52;86.97;102426.16;6279001;22;20031;-59
2022/03/06 05:56:17;;;;;;;38.90;22.17;;;;;;;-1.51;86.71;102430.50;6278149;22;20057;-58
2022/03/06 05:58:42;;;;;;;41.15;21.75;;;;;;;-1.55;87.00;102424.28;6279235;22;20094;-58
2022/03/06 06:01:08;;;;;;;40.92;22.45;;;;;;;-1.52;86.82;102433.84;6278972;22;20008;-58
2022/03/06 06:03:33;;;;;;;39.17;22.00;;;;;;;-1.55;86.76;102434.53;6279674;22;20023;-58
2022/03/06 06:05:58;;;;;;;41.17;21.58;;;;;;;-1.52;86.90;102437.31;6278925;22;20075;-57
2022/03/06 06:08:23;;;;;;;39.83;22.38;;;;;;;-1.60;86.63;102427.38;6278880;22;20012;-59
2022/03/06 06:10:49;;;;;;;40.80;22.38;;;;;;;-1.55;87.73;102443.91;6278720;22;20011;-58
2022/03/06 06:13:15;;;;;;;38.97;21.00;;;;;;;-1.55;86.95;102447.38;6279331;22;20427;-59
2022/03/06 06:15:43;;;;;;;41.47;21.25;;;;;;;-1.57;87.22;102450.66;6278487;22;20008;-58
2022/03/06 06:18:09;;;;;;;37.58;21.77;;;;;;;-1.55;86.99;102459.31;6278877;22;20016;-58
2022/03/06 06:20:36;;;;;;;39.03;22.10;;;;;;;-1.53;87.36;102455.16;6278715;22;20309;-59
2022/03/06 06:23:02;;;;;;;39.55;21.48;;;;;;;-1.51;87.32;102461.28;6278778;22;20000;-58
2022/03/06 06:25:27;;;;;;;42.13;22.88;;;;;;;-1.52;86.72;102457.84;6278966;22;20397;-58
2022/03/06 06:27:52;;;;;;;40.40;21.50;;;;;;;-1.52;86.67;102465.53;6278714;22;20077;-59
2022/03/06 06:30:18;;;;;;;39.97;21.67;;;;;;;-1.51;86.95;102466.41;6278635;22;20007;-58
2022/03/06 06:32:43;;;;;;;40.28;22.35;;;;;;;-1.51;86.60;102463.84;6278609;22;20069;-58
2022/03/06 06:35:08;;;;;;;39.33;22.00;;;;;;;-1.50;87.29;102463.06;6278363;22;20068;-58
2022/03/06 06:37:33;;;;;;;42.67;22.42;;;;;;;-1.49;86.82;102473.44;6277994;22;20007;-58
2022/03/06 06:39:59;;;;;;;37.10;21.20;;;;;;;-1.49;86.81;102464.84;6278270;22;20010;-58
2022/03/06 06:42:24;;;;;;;38.58;21.58;;;;;;;-1.42;87.15;102473.03;6278360;22;20019;-58
2022/03/06 06:44:49;;;;;;;38.80;21.58;;;;;;;-1.45;86.47;102472.84;6278479;22;20011;-58
2022/03/06 06:47:14;;;;;;;36.22;21.40;;;;;;;-1.42;87.15;102474.69;6278691;22;20113;-57
2022/03/06 06:49:40;;;;;;;37.65;21.58;;;;;;;-1.37;86.94;102478.41;6278700;22;20010;-58
2022/03/06 06:52:05;;;;;;;39.25;21.83;;;;;;;-1.34;87.06;102481.19;6278051;22;20004;-57
2022/03/06 06:54:31;;;;;;;42.40;22.42;;;;;;;-1.29;86.68;102486.59;6276219;22;20008;-58
2022/03/06 06:56:56;;;;;;;39.65;22.27;;;;;;;-1.15;86.76;102489.19;6278221;22;19999;-59
2022/03/06 06:59:21;;;;;;;39.15;22.00;;;;;;;-1.03;86.64;102481.34;6278406;22;20015;-58
2022/03/06 07:01:46;;;;;;;35.78;20.80;;;;;;;-0.95;85.56;102484.38;6278225;22;20359;-58
2022/03/06 07:04:12;;;;;;;39.95;21.65;;;;;;;-0.84;85.50;102489.34;6278253;22;20003;-58
2022/03/06 07:06:37;;;;;;;37.10;21.33;;;;;;;-0.71;85.37;102490.97;6278179;22;20004;-58
2022/03/06 07:09:02;;;;;;;38.53;21.90;;;;;;;-0.57;85.13;102486.63;6279592;22;20359;-59
2022/03/06 07:11:27;;;;;;;36.42;21.65;;;;;;;-0.41;84.27;102497.00;6279868;22;20046;-58
2022/03/06 07:13:53;;;;;;;35.75;21.70;;;;;;;-0.30;84.62;102500.16;6279925;22;20003;-59
2022/03/06 07:16:18;;;;;;;37.40;20.63;;;;;;;-0.25;83.61;102496.19;6280627;22;20068;-58
2022/03/06 07:18:43;;;;;;;34.90;20.20;;;;;;;-0.21;82.99;102504.16;6279909;22;20011;-58
2022/03/06 07:21:10;;;;;;;36.90;21.30;;;;;;;-0.14;82.82;102500.22;6280082;22;20022;-58
2022/03/06 07:23:35;;;;;;;35.50;20.95;;;;;;;-0.01;82.74;102498.44;6279832;22;20439;-58
2022/03/06 07:26:00;;;;;;;36.08;21.08;;;;;;;0.11;81.98;102493.09;6279864;22;20102;-58
2022/03/06 07:28:26;;;;;;;37.92;21.92;;;;;;;0.21;81.79;102497.03;6280178;22;20008;-57
2022/03/06 07:30:51;;;;;;;45.05;26.27;;;;;;;0.40;80.89;102504.09;6279991;22;20359;-58
2022/03/06 07:33:16;;;;;;;37.80;23.48;;;;;;;0.59;80.39;102509.44;6279673;22;20011;-57
2022/03/06 07:35:41;;;;;;;39.03;23.45;;;;;;;0.75;79.99;102512.00;6278371;22;20003;-58
2022/03/06 07:38:07;;;;;;;36.28;22.02;;;;;;;0.91;79.00;102519.75;6279740;22;20019;-59
2022/03/06 07:40:33;;;;;;;34.03;21.10;;;;;;;1.05;78.25;102518.78;6280002;22;20008;-58
2022/03/06 07:42:58;;;;;;;33.33;20.02;;;;;;;1.24;77.36;102523.19;6280193;22;20011;-58
2022/03/06 07:45:23;;;;;;;30.45;20.60;;;;;;;1.36;76.85;102525.53;6279728;22;20012;-59
2022/03/06 07:47:48;;;;;;;29.45;19.35;;;;;;;1.45;75.78;102523.38;6280002;22;20031;-58
2022/03/06 07:50:14;;;;;;;33.22;20.42;;;;;;;1.67;75.62;102533.09;6280065;22;20011;-59
2022/03/06 07:52:40;;;;;;;32.60;20.17;;;;;;;2.00;75.01;102529.59;6280138;22;20030;-58
2022/03/06 07:55:07;;;;;;;32.25;19.67;;;;;;;2.21;73.54;102534.00;6253407;22;20004;-58
2022/03/06 07:57:33;;;;;;;31.60;19.30;;;;;;;2.31;72.63;102519.00;6279999;22;20065;-59
2022/03/06 07:59:58;;;;;;;31.55;19.08;;;;;;;2.61;71.85;102540.22;6280265;22;20004;-58
2022/03/06 08:02:23;;;;;;;28.90;17.50;;;;;;;2.80;70.58;102541.94;6279966;22;20023;-59
2022/03/06 08:04:48;;;;;;;28.30;18.52;;;;;;;3.13;69.82;102547.72;6280121;22;20087;-59
2022/03/06 08:07:14;;;;;;;26.38;16.77;;;;;;;3.32;68.35;102539.06;6280642;22;20104;-59
2022/03/06 08:09:39;;;;;;;28.52;18.48;;;;;;;3.33;68.67;102548.59;6279886;22;20415;-59
2022/03/06 08:12:05;;;;;;;27.75;18.55;;;;;;;3.53;68.24;102541.69;6279595;22;20065;-60
2022/03/06 08:14:30;;;;;;;27.75;17.80;;;;;;;3.83;66.25;102548.16;6280412;22;20139;-59
2022/03/06 08:16:56;;;;;;;28.10;17.33;;;;;;;4.06;65.20;102547.38;6279861;22;20336;-58
2022/03/06 08:19:22;;;;;;;25.00;17.38;;;;;;;4.48;64.44;102548.22;6279596;22;20022;-59
2022/03/06 08:21:48;;;;;;;25.67;17.70;;;;;;;5.13;62.77;102544.59;6279803;22;20411;-59
2022/03/06 08:24:14;;;;;;;26.60;16.77;;;;;;;5.71;60.95;102538.84;6279893;22;20058;-59
2022/03/06 08:26:39;;;;;;;25.92;16.80;;;;;;;5.93;58.89;102551.72;6279951;22;20396;-58
2022/03/06 08:29:04;;;;;;;23.70;15.80;;;;;;;5.50;58.55;102549.38;6279950;22;20389;-59
2022/03/06 08:31:30;;;;;;;23.77;16.30;;;;;;;5.15;59.99;102553.31;6280045;22;20030;-59
2022/03/06 08:33:55;;;;;;;23.38;15.95;;;;;;;4.85;60.42;102558.25;6279825;22;20339;-60
2022/03/06 08:36:20;;;;;;;26.17;17.27;;;;;;;4.56;61.70;102543.31;6279853;22;20004;-59
2022/03/06 08:38:46;;;;;;;25.42;16.83;;;;;;;4.42;62.04;102566.09;6279352;22;20090;-59
2022/03/06 08:41:12;;;;;;;25.88;16.00;;;;;;;4.36;61.92;102564.97;6279608;22;20317;-60
2022/03/06 08:43:37;;;;;;;23.58;16.92;;;;;;;4.19;63.11;102575.56;6253773;22;20014;-59
2022/03/06 08:46:03;;;;;;;28.67;18.33;;;;;;;4.18;63.80;102568.59;6279135;22;19999;-58
2022/03/06 08:48:30;;;;;;;29.73;18.00;;;;;;;4.06;64.41;102583.66;6279745;22;20007;-59
2022/03/06 08:50:55;;;;;;;27.30;16.67;;;;;;;3.92;64.26;102571.84;6279725;22;20077;-59
2022/03/06 08:53:20;;;;;;;25.88;17.33;;;;;;;3.78;64.91;102571.28;6279579;22;20453;-60
2022/03/06 08:55:45;;;;;;;24.63;16.52;;;;;;;3.74;65.44;102579.72;6279517;22;20102;-59
2022/03/06 08:58:11;;;;;;;23.70;16.65;;;;;;;3.70;65.28;102569.19;6279673;22;20081;-59
2022/03/06 09:00:36;;;;;;;26.58;17.70;;;;;;;3.73;66.66;102566.72;6279563;22;20004;-59
2022/03/06 09:03:02;;;;;;;24.33;17.05;;;;;;;3.80;66.36;102574.81;6280200;22;20003;-59
2022/03/06 09:05:27;;;;;;;24.67;16.10;;;;;;;3.91;65.98;102574.38;6279085;22;20305;-57
2022/03/06 09:07:53;;;;;;;28.15;17.23;;;;;;;4.01;66.75;102573.91;6278879;22;20003;-65
2022/03/06 09:10:18;;;;;;;24.33;16.23;;;;;;;4.12;66.07;102583.03;6278592;22;20466;-59
2022/03/06 09:12:43;;;;;;;23.90;15.25;;;;;;;4.15;64.59;102578.88;6279157;22;20125;-58
2022/03/06 09:15:10;;;;;;;23.50;16.30;;;;;;;4.09;65.56;102583.78;6278865;22;20282;-58
2022/03/06 09:17:36;;;;;;;25.02;16.75;;;;;;;4.10;65.78;102580.38;6278686;22;20106;-60
2022/03/06 09:20:03;;;;;;;26.70;17.77;;;;;;;4.26;65.64;102584.47;6279100;22;20033;-59
2022/03/06 09:22:28;;;;;;;25.65;16.52;;;;;;;4.34;64.74;102577.88;6278703;22;20004;-58
2022/03/06 09:24:53;;;;;;;22.92;15.63;;;;;;;4.31;64.71;102582.97;6278763;22;20018;-59
2022/03/06 09:27:18;;;;;;;23.23;17.25;;;;;;;4.32;65.14;102574.38;6278871;22;20004;-58
2022/03/06 09:29:44;;;;;;;24.27;17.02;;;;;;;4.39;65.01;102578.06;6278737;22;20007;-58
2022/03/06 09:32:09;;;;;;;24.08;16.13;;;;;;;4.41;64.18;102587.66;6278937;22;20352;-59
2022/03/06 09:34:34;;;;;;;25.27;17.67;;;;;;;4.34;64.78;102570.09;6279357;22;20397;-58
2022/03/06 09:37:00;;;;;;;24.40;16.17;;;;;;;4.40;65.10;102578.13;6279272;22;20301;-59
2022/03/06 09:39:25;;;;;;;22.13;16.35;;;;;;;4.55;64.29;102577.84;6278617;22;19996;-59
2022/03/06 09:41:54;;;;;;;28.58;17.13;;;;;;;4.69;64.20;102576.66;6278682;22;20016;-59
2022/03/06 09:44:19;;;;;;;28.67;17.77;;;;;;;4.92;64.32;102577.53;6279550;22;20003;-59
2022/03/06 09:46:45;;;;;;;25.48;17.30;;;;;;;4.85;62.74;102575.53;6278966;22;20015;-59
2022/03/06 09:49:10;;;;;;;26.10;17.55;;;;;;;4.93;63.74;102579.28;6279247;22;20004;-59
2022/03/06 09:51:38;;;;;;;25.27;16.90;;;;;;;4.97;62.95;102578.59;6278953;22;20057;-58
2022/03/06 09:54:05;;;;;;;23.05;15.95;;;;;;;5.06;62.73;102572.84;6278930;22;20043;-59
2022/03/06 09:56:31;;;;;;;24.63;17.33;;;;;;;5.13;62.74;102572.25;6278942;22;20095;-59
2022/03/06 09:58:56;;;;;;;23.13;17.00;;;;;;;5.21;63.08;102573.41;6278618;22;20035;-59
2022/03/06 10:01:22;;;;;;;23.05;16.77;;;;;;;5.22;62.18;102568.25;6278691;22;20008;-59
2022/03/06 10:03:47;;;;;;;24.15;16.75;;;;;;;5.24;62.84;102573.50;6278896;22;20300;-59
2022/03/06 10:06:12;;;;;;;25.50;17.85;;;;;;;5.43;63.56;102570.75;6278977;22;20285;-59
2022/03/06 10:08:38;;;;;;;23.10;16.75;;;;;;;5.32;62.41;102574.69;6278674;22;20076;-59
2022/03/06 10:11:06;;;;;;;23.20;17.05;;;;;;;5.36;62.97;102567.91;6278729;22;20034;-59
2022/03/06 10:13:38;;;;;;;24.08;18.00;;;;;;;5.46;62.38;102562.19;6278844;22;20003;-59
2022/03/06 10:16:20;;;;;;;26.55;16.60;;;;;;;5.60;61.99;102563.53;6278274;22;20085;-59
2022/03/06 10:18:50;;;;;;;25.92;17.48;;;;;;;5.71;61.32;102574.31;6279017;22;20043;-59
2022/03/06 10:21:29;;;;;;;24.23;17.45;;;;;;;6.01;61.47;102570.19;6278945;22;20039;-58
2022/03/06 10:24:00;;;;;;;24.17;16.42;;;;;;;5.83;60.67;102578.22;6278698;22;20008;-59
2022/03/06 10:26:29;;;;;;;22.92;16.60;;;;;;;5.92;60.81;102582.84;6278713;22;20069;-59
2022/03/06 10:28:54;;;;;;;22.88;16.70;;;;;;;6.07;60.09;102579.88;6278706;22;20008;-59
2022/03/06 10:31:21;;;;;;;22.23;16.42;;;;;;;6.17;60.31;102581.94;6278675;22;20344;-59
2022/03/06 10:33:54;;;;;;;22.30;15.98;;;;;;;6.08;60.28;102559.13;6278397;22;20082;-59
2022/03/06 10:36:28;;;;;;;;;;;;;;;6.18;61.36;102578.53;6279406;22;20015;-59
2022/03/06 10:38:54;;;;;;;21.30;15.38;;;;;;;6.26;59.82;102571.84;6278636;22;19907;-59
2022/03/06 10:41:19;;;;;;;21.88;15.85;;;;;;;6.39;60.03;102573.13;6278706;22;20011;-58
2022/03/06 10:43:45;;;;;;;21.13;15.52;;;;;;;6.57;58.11;102576.31;6278639;22;20106;-59
2022/03/06 10:46:18;;;;;;;23.42;15.27;;;;;;;6.60;57.38;102579.84;6277975;22;20004;-59
2022/03/06 10:48:54;;;;;;;17.27;13.02;;;;;;;6.51;56.82;102579.59;6278171;22;20046;-59
2022/03/06 10:51:20;;;;;;;21.50;14.70;;;;;;;6.26;57.39;102567.50;6252314;22;20011;-59
2022/03/06 10:53:54;;;;;;;19.20;14.32;;;;;;;6.34;57.08;102578.19;6278938;22;20082;-59
2022/03/06 10:56:20;;;;;;;19.95;14.05;;;;;;;6.27;56.07;102576.19;6278483;22;20014;-59
2022/03/06 10:58:47;;;;;;;21.85;14.35;;;;;;;6.20;55.86;102576.84;6278487;22;20003;-59
2022/03/06 11:01:12;;;;;;;18.95;14.55;;;;;;;6.23;58.04;102579.56;6279206;22;20078;-58
2022/03/06 11:03:38;;;;;;;19.48;13.77;;;;;;;6.33;55.79;102570.31;6278628;22;20042;-59
2022/03/06 11:06:05;;;;;;;20.17;13.93;;;;;;;6.35;54.67;102571.25;6278871;22;20003;-59
2022/03/06 11:08:32;;;;;;;19.25;14.30;;;;;;;6.49;54.25;102573.44;6278611;22;20003;-59